createdAt,value
2022-10-20T00:00:11.802Z,101370.22
2022-10-20T00:01:11.658Z,101359.88
2022-10-20T00:01:58.715Z,101370.44
2022-10-20T00:02:52.730Z,101370.63
2022-10-20T00:03:47.684Z,101373.31
2022-10-20T00:04:41.680Z,101351.25
2022-10-20T00:05:35.685Z,101357.34
2022-10-20T00:06:45.650Z,101348.50
2022-10-20T00:07:25.713Z,101352.16
2022-10-20T00:08:05.724Z,101355.69
2022-10-20T00:08:47.694Z,101350.38
2022-10-20T00:09:27.720Z,101353.88
2022-10-20T00:10:07.652Z,101360.97
2022-10-20T00:10:48.787Z,101359.06
2022-10-20T00:11:30.669Z,101361.09
2022-10-20T00:12:11.721Z,101347.66
2022-10-20T00:12:52.681Z,101348.66
2022-10-20T00:13:26.434Z,101354.00
2022-10-20T00:14:14.683Z,101350.78
2022-10-20T00:14:48.477Z,101358.69
2022-10-20T00:15:35.709Z,101347.22
2022-10-20T00:16:09.572Z,101357.00
2022-10-20T00:16:56.658Z,101341.38
2022-10-20T00:17:30.444Z,101349.25
2022-10-20T00:18:17.788Z,101333.47
2022-10-20T00:18:51.892Z,101342.16
2022-10-20T00:19:39.709Z,101354.50
2022-10-20T00:21:06.730Z,101361.41
2022-10-20T00:21:40.432Z,101344.53
2022-10-20T00:22:28.640Z,101353.22
2022-10-20T00:23:02.368Z,101348.00
2022-10-20T00:23:43.713Z,101354.19
2022-10-20T00:24:20.774Z,101350.56
2022-10-20T00:24:54.380Z,101353.31
2022-10-20T00:25:34.682Z,101354.19
2022-10-20T00:26:17.712Z,101349.81
2022-10-20T00:26:52.337Z,101350.03
2022-10-20T00:27:32.694Z,101353.53
2022-10-20T00:28:06.738Z,101348.19
2022-10-20T00:28:40.446Z,101351.81
2022-10-20T00:29:20.709Z,101352.72
2022-10-20T00:29:55.774Z,101332.63
2022-10-20T00:30:29.423Z,101340.44
2022-10-20T00:31:11.678Z,101352.72
2022-10-20T00:31:45.745Z,101336.94
2022-10-20T00:32:19.412Z,101345.81
2022-10-20T00:32:59.680Z,101336.81
2022-10-20T00:33:33.860Z,101349.25
2022-10-20T00:34:07.363Z,101342.47
2022-10-20T00:34:48.740Z,101350.34
2022-10-20T00:35:22.720Z,101348.41
2022-10-20T00:36:03.869Z,101343.34
2022-10-20T00:36:50.316Z,101342.38
2022-10-20T00:37:25.760Z,101340.66
2022-10-20T00:37:59.604Z,101344.22
2022-10-20T00:38:41.712Z,101351.94
2022-10-20T00:39:15.751Z,101353.22
2022-10-20T00:39:55.677Z,101358.56
2022-10-20T00:40:35.749Z,101351.47
2022-10-20T00:41:18.649Z,101355.97
2022-10-20T00:41:59.695Z,101345.53
2022-10-20T00:42:39.847Z,101350.91
2022-10-20T00:43:21.708Z,101353.81
2022-10-20T00:44:44.646Z,101342.13
2022-10-20T00:45:28.795Z,101348.50
2022-10-20T00:46:04.748Z,101321.66
2022-10-20T00:46:40.906Z,101355.53
2022-10-20T00:47:28.649Z,101344.94
2022-10-20T00:48:06.781Z,101339.84
2022-10-20T00:48:41.916Z,101343.09
2022-10-20T00:49:29.713Z,101344.56
2022-10-20T00:50:03.780Z,101355.94
2022-10-20T00:50:50.678Z,101347.28
2022-10-20T00:51:35.783Z,101349.75
2022-10-20T00:52:17.654Z,101324.72
2022-10-20T00:52:58.694Z,101354.25
2022-10-20T00:53:39.771Z,101357.72
2022-10-20T00:54:24.884Z,101351.56
2022-10-20T00:55:07.663Z,101352.53
2022-10-20T00:55:49.688Z,101353.38
2022-10-20T00:56:29.690Z,101353.47
2022-10-20T00:57:10.715Z,101349.28
2022-10-20T00:57:55.696Z,101347.44
2022-10-20T00:58:35.751Z,101343.16
2022-10-20T00:59:17.692Z,101345.72
2022-10-20T00:59:57.649Z,101340.34
2022-10-20T01:00:37.644Z,101337.59
2022-10-20T01:01:18.717Z,101347.28
2022-10-20T01:02:00.812Z,101317.53
2022-10-20T01:02:41.702Z,101339.97
2022-10-20T01:03:27.624Z,101338.16
2022-10-20T01:04:08.784Z,101336.25
2022-10-20T01:04:48.691Z,101315.13
2022-10-20T01:05:29.723Z,101293.41
2022-10-20T01:06:10.642Z,101322.84
2022-10-20T01:06:51.710Z,101326.56
2022-10-20T01:07:31.630Z,101327.34
2022-10-20T01:08:12.763Z,101322.06
2022-10-20T01:08:52.714Z,101325.84
2022-10-20T01:09:33.810Z,101327.44
2022-10-20T01:10:14.728Z,101325.69
2022-10-20T01:11:16.663Z,101338.16
2022-10-20T01:12:14.684Z,101328.22
2022-10-20T01:13:13.701Z,101329.47
2022-10-20T01:14:14.778Z,101332.00
2022-10-20T01:15:14.712Z,101334.69
2022-10-20T01:16:05.758Z,101336.72
2022-10-20T01:17:21.589Z,101334.84
2022-10-20T01:18:38.701Z,101306.16
2022-10-20T01:20:09.661Z,101341.78
2022-10-20T01:21:15.625Z,101330.03
2022-10-20T01:22:35.628Z,101323.97
2022-10-20T01:23:59.686Z,101316.88
2022-10-20T01:25:18.551Z,101341.50
2022-10-20T01:26:45.617Z,101327.34
2022-10-20T01:27:59.617Z,101325.53
2022-10-20T01:29:00.678Z,101336.13
2022-10-20T01:30:19.625Z,101335.25
2022-10-20T01:31:15.617Z,101330.19
2022-10-20T01:32:40.578Z,101306.03
2022-10-20T01:33:50.601Z,101341.94
2022-10-20T01:34:58.668Z,101326.31
2022-10-20T01:35:56.702Z,101326.88
2022-10-20T01:36:57.776Z,101327.25
2022-10-20T01:37:49.570Z,101329.06
2022-10-20T01:39:02.560Z,101328.47
2022-10-20T01:40:06.622Z,101335.00
2022-10-20T01:41:06.606Z,101332.69
2022-10-20T01:42:09.560Z,101330.75
2022-10-20T01:43:05.621Z,101313.56
2022-10-20T01:43:59.572Z,101328.56
2022-10-20T01:44:54.602Z,101339.78
2022-10-20T01:45:38.774Z,101340.94
2022-10-20T01:46:19.782Z,101345.31
2022-10-20T01:47:00.580Z,101341.97
2022-10-20T01:47:42.713Z,101336.91
2022-10-20T01:48:28.610Z,101334.06
2022-10-20T01:49:10.709Z,101334.22
2022-10-20T01:49:53.657Z,101329.66
2022-10-20T01:50:33.654Z,101342.75
2022-10-20T01:51:14.570Z,101339.13
2022-10-20T01:51:54.640Z,101340.88
2022-10-20T01:52:35.746Z,101348.94
2022-10-20T01:53:16.581Z,101343.69
2022-10-20T01:53:56.584Z,101344.56
2022-10-20T01:54:37.662Z,101332.97
2022-10-20T01:55:23.600Z,101347.97
2022-10-20T01:56:05.701Z,101344.56
2022-10-20T01:57:35.576Z,101308.91
2022-10-20T01:58:43.696Z,101336.06
2022-10-20T01:59:39.605Z,101314.56
2022-10-20T02:00:22.593Z,101308.22
2022-10-20T02:01:20.648Z,101340.66
2022-10-20T02:02:44.632Z,101338.75
2022-10-20T02:04:09.609Z,101331.09
2022-10-20T02:05:32.603Z,101332.13
2022-10-20T02:06:41.617Z,101325.28
2022-10-20T02:07:41.653Z,101333.94
2022-10-20T02:09:03.713Z,101335.72
2022-10-20T02:09:51.669Z,101324.94
2022-10-20T02:10:41.608Z,101326.59
2022-10-20T02:11:34.608Z,101321.53
2022-10-20T02:12:24.519Z,101304.00
2022-10-20T02:13:07.606Z,101317.13
2022-10-20T02:13:49.540Z,101323.78
2022-10-20T02:14:39.605Z,101314.28
2022-10-20T02:15:15.670Z,101328.19
2022-10-20T02:16:07.582Z,101324.56
2022-10-20T02:16:47.659Z,101296.75
2022-10-20T02:17:36.582Z,101291.28
2022-10-20T02:18:13.652Z,101317.31
2022-10-20T02:19:00.616Z,101284.59
2022-10-20T02:19:48.636Z,101293.31
2022-10-20T02:20:45.701Z,101321.25
2022-10-20T02:21:39.842Z,101326.47
2022-10-20T02:22:34.842Z,101328.19
2022-10-20T02:23:35.003Z,101327.25
2022-10-20T02:24:32.629Z,101322.97
2022-10-20T02:25:16.593Z,101330.88
2022-10-20T02:25:59.612Z,101319.63
2022-10-20T02:26:41.584Z,101324.13
2022-10-20T02:27:31.660Z,101328.63
2022-10-20T02:28:13.618Z,101330.63
2022-10-20T02:29:00.703Z,101325.16
2022-10-20T02:29:51.555Z,101326.03
2022-10-20T02:30:31.617Z,101321.53
2022-10-20T02:31:05.708Z,101315.50
2022-10-20T02:31:53.549Z,101317.19
2022-10-20T02:32:28.608Z,101324.28
2022-10-20T02:33:15.616Z,101325.22
2022-10-20T02:33:50.709Z,101319.13
2022-10-20T02:34:41.036Z,101290.25
2022-10-20T02:35:30.573Z,101324.28
2022-10-20T02:36:13.684Z,101313.69
2022-10-20T02:36:53.580Z,101321.53
2022-10-20T02:37:33.844Z,101322.47
2022-10-20T02:38:15.600Z,101332.91
2022-10-20T02:38:55.488Z,101322.31
2022-10-20T02:39:35.658Z,101328.69
2022-10-20T02:40:17.523Z,101324.19
2022-10-20T02:40:57.657Z,101325.16
2022-10-20T02:41:37.603Z,101320.66
2022-10-20T02:42:17.655Z,101315.44
2022-10-20T02:42:57.602Z,101318.06
2022-10-20T02:43:52.510Z,101320.75
2022-10-20T02:44:46.569Z,101318.34
2022-10-20T02:45:40.585Z,101306.78
2022-10-20T02:46:34.612Z,101313.69
2022-10-20T02:47:14.613Z,101327.66
2022-10-20T02:47:54.666Z,101319.91
2022-10-20T02:48:34.568Z,101318.84
2022-10-20T02:49:14.661Z,101317.91
2022-10-20T02:49:55.488Z,101311.09
2022-10-20T02:50:35.670Z,101321.53
2022-10-20T02:51:15.497Z,101320.88
2022-10-20T02:51:55.779Z,101330.59
2022-10-20T02:52:36.577Z,101334.34
2022-10-20T02:53:16.557Z,101322.97
2022-10-20T02:53:57.582Z,101324.63
2022-10-20T02:54:37.611Z,101297.81
2022-10-20T02:55:58.957Z,101328.31
2022-10-20T02:56:38.548Z,101327.44
2022-10-20T02:57:18.660Z,101330.06
2022-10-20T02:58:00.532Z,101327.44
2022-10-20T02:58:41.619Z,101337.31
2022-10-20T02:59:25.572Z,101330.50
2022-10-20T03:00:05.594Z,101331.28
2022-10-20T03:00:45.605Z,101334.97
2022-10-20T03:01:25.727Z,101329.63
2022-10-20T03:02:05.521Z,101327.19
2022-10-20T03:02:45.888Z,101331.63
2022-10-20T03:03:26.622Z,101334.16
2022-10-20T03:04:06.636Z,101338.56
2022-10-20T03:04:46.514Z,101333.09
2022-10-20T03:05:27.170Z,101332.31
2022-10-20T03:06:19.500Z,101337.13
2022-10-20T03:06:59.543Z,101337.00
2022-10-20T03:07:39.570Z,101333.38
2022-10-20T03:08:21.168Z,101342.13
2022-10-20T03:09:02.644Z,101333.22
2022-10-20T03:09:44.188Z,101331.47
2022-10-20T03:10:24.558Z,101327.28
2022-10-20T03:11:04.669Z,101327.16
2022-10-20T03:11:44.502Z,101319.03
2022-10-20T03:12:27.701Z,101317.03
2022-10-20T03:13:12.523Z,101326.78
2022-10-20T03:13:52.627Z,101328.72
2022-10-20T03:14:32.547Z,101318.91
2022-10-20T03:15:13.633Z,101323.25
2022-10-20T03:15:53.557Z,101326.00
2022-10-20T03:16:33.585Z,101321.44
2022-10-20T03:17:13.562Z,101319.03
2022-10-20T03:18:02.574Z,101324.53
2022-10-20T03:18:42.580Z,101324.47
2022-10-20T03:19:23.567Z,101325.34
2022-10-20T03:20:03.708Z,101318.28
2022-10-20T03:20:43.678Z,101327.84
2022-10-20T03:21:24.653Z,101312.06
2022-10-20T03:22:04.703Z,101328.03
2022-10-20T03:22:45.555Z,101320.06
2022-10-20T03:23:26.646Z,101316.50
2022-10-20T03:24:06.505Z,101331.47
2022-10-20T03:24:46.636Z,101326.28
2022-10-20T03:25:26.510Z,101309.56
2022-10-20T03:26:16.712Z,101331.63
2022-10-20T03:26:56.562Z,101318.66
2022-10-20T03:27:36.936Z,101322.00
2022-10-20T03:28:17.651Z,101327.34
2022-10-20T03:28:57.612Z,101313.97
2022-10-20T03:29:37.460Z,101316.91
2022-10-20T03:30:17.734Z,101327.34
2022-10-20T03:30:57.509Z,101315.63
2022-10-20T03:31:37.619Z,101323.06
2022-10-20T03:32:18.467Z,101318.47
2022-10-20T03:32:58.615Z,101317.63
2022-10-20T03:33:39.444Z,101315.84
2022-10-20T03:34:19.586Z,101322.00
2022-10-20T03:34:59.584Z,101317.59
2022-10-20T03:35:39.502Z,101315.84
2022-10-20T03:36:19.480Z,101317.59
2022-10-20T03:37:00.557Z,101317.59
2022-10-20T03:37:40.487Z,101313.47
2022-10-20T03:38:20.749Z,101323.06
2022-10-20T03:39:00.520Z,101314.59
2022-10-20T03:39:40.547Z,101317.31
2022-10-20T03:40:20.438Z,101308.69
2022-10-20T03:41:41.576Z,101316.25
2022-10-20T03:42:21.585Z,101311.03
2022-10-20T03:43:01.576Z,101315.38
2022-10-20T03:43:41.476Z,101314.38
2022-10-20T03:44:21.461Z,101320.66
2022-10-20T03:45:01.543Z,101305.81
2022-10-20T03:45:41.468Z,101307.34
2022-10-20T03:46:21.594Z,101306.69
2022-10-20T03:47:02.514Z,101320.00
2022-10-20T03:47:43.586Z,101311.94
2022-10-20T03:48:24.465Z,101310.16
2022-10-20T03:49:04.604Z,101304.38
2022-10-20T03:49:45.434Z,101322.81
2022-10-20T03:50:25.988Z,101316.66
2022-10-20T03:51:08.420Z,101323.03
2022-10-20T03:51:48.583Z,101320.16
2022-10-20T03:52:28.458Z,101314.13
2022-10-20T03:53:08.619Z,101323.31
2022-10-20T03:53:49.445Z,101315.63
2022-10-20T03:54:29.552Z,101318.03
2022-10-20T03:55:11.433Z,101314.41
2022-10-20T03:55:52.801Z,101317.78
2022-10-20T03:56:33.474Z,101306.56
2022-10-20T03:57:13.493Z,101308.38
2022-10-20T03:57:53.475Z,101319.00
2022-10-20T03:58:33.579Z,101317.19
2022-10-20T03:59:13.433Z,101312.00
2022-10-20T03:59:53.572Z,101318.28
2022-10-20T04:00:33.494Z,101313.84
2022-10-20T04:01:14.691Z,101313.84
2022-10-20T04:01:54.530Z,101312.19
2022-10-20T04:02:50.601Z,101307.78
2022-10-20T04:03:30.452Z,101311.34
2022-10-20T04:04:10.828Z,101298.22
2022-10-20T04:04:50.458Z,101306.91
2022-10-20T04:05:30.681Z,101312.19
2022-10-20T04:06:11.509Z,101305.16
2022-10-20T04:06:51.637Z,101307.78
2022-10-20T04:07:31.508Z,101312.13
2022-10-20T04:08:11.500Z,101306.78
2022-10-20T04:08:51.477Z,101305.81
2022-10-20T04:09:31.571Z,101313.84
2022-10-20T04:10:12.466Z,101310.31
2022-10-20T04:10:52.486Z,101305.91
2022-10-20T04:11:33.447Z,101306.78
2022-10-20T04:12:13.549Z,101307.72
2022-10-20T04:12:53.496Z,101312.13
2022-10-20T04:13:33.473Z,101307.13
2022-10-20T04:14:13.475Z,101273.97
2022-10-20T04:14:54.602Z,101307.03
2022-10-20T04:15:35.493Z,101288.63
2022-10-20T04:16:15.562Z,101302.63
2022-10-20T04:16:55.440Z,101300.75
2022-10-20T04:17:36.835Z,101308.72
2022-10-20T04:18:16.489Z,101311.41
2022-10-20T04:18:58.514Z,101297.38
2022-10-20T04:19:38.475Z,101296.50
2022-10-20T04:20:19.526Z,101307.03
2022-10-20T04:20:59.492Z,101304.28
2022-10-20T04:21:39.665Z,101310.50
2022-10-20T04:22:20.469Z,101305.97
2022-10-20T04:23:00.547Z,101308.66
2022-10-20T04:23:40.497Z,101308.84
2022-10-20T04:24:20.556Z,101303.66
2022-10-20T04:25:01.578Z,101306.19
2022-10-20T04:25:45.557Z,101300.19
2022-10-20T04:26:25.416Z,101296.84
2022-10-20T04:27:05.570Z,101307.63
2022-10-20T04:27:47.461Z,101297.91
2022-10-20T04:28:28.506Z,101301.53
2022-10-20T04:29:09.410Z,101295.50
2022-10-20T04:29:50.540Z,101303.59
2022-10-20T04:30:30.422Z,101295.50
2022-10-20T04:31:11.473Z,101280.50
2022-10-20T04:31:52.449Z,101299.00
2022-10-20T04:32:32.573Z,101291.75
2022-10-20T04:33:12.435Z,101298.66
2022-10-20T04:33:52.568Z,101305.81
2022-10-20T04:34:33.430Z,101298.78
2022-10-20T04:35:14.527Z,101299.72
2022-10-20T04:35:54.487Z,101303.31
2022-10-20T04:36:34.579Z,101305.94
2022-10-20T04:37:14.402Z,101304.19
2022-10-20T04:37:54.476Z,101298.84
2022-10-20T04:38:37.464Z,101308.56
2022-10-20T04:39:18.551Z,101312.13
2022-10-20T04:39:58.413Z,101304.13
2022-10-20T04:40:38.515Z,101290.22
2022-10-20T04:41:18.397Z,101312.03
2022-10-20T04:41:58.468Z,101303.22
2022-10-20T04:42:39.381Z,101317.31
2022-10-20T04:43:19.486Z,101301.31
2022-10-20T04:44:00.394Z,101307.53
2022-10-20T04:44:40.452Z,101306.34
2022-10-20T04:45:20.457Z,101293.09
2022-10-20T04:46:02.645Z,101301.84
2022-10-20T04:46:45.405Z,101295.56
2022-10-20T04:47:25.457Z,101297.34
2022-10-20T04:48:05.379Z,101295.63
2022-10-20T04:48:49.481Z,101293.81
2022-10-20T04:49:30.390Z,101291.13
2022-10-20T04:50:11.477Z,101292.09
2022-10-20T04:50:51.400Z,101284.84
2022-10-20T04:51:45.412Z,101298.94
2022-10-20T04:52:39.382Z,101291.13
2022-10-20T04:53:33.389Z,101288.38
2022-10-20T04:54:27.362Z,101271.72
2022-10-20T04:55:22.352Z,101270.84
2022-10-20T04:56:18.414Z,101280.28
2022-10-20T04:57:05.429Z,101281.16
2022-10-20T04:57:40.447Z,101281.16
2022-10-20T04:58:27.376Z,101281.91
2022-10-20T04:59:03.436Z,101270.59
2022-10-20T04:59:50.345Z,101285.53
2022-10-20T05:00:24.477Z,101286.38
2022-10-20T05:01:16.354Z,101276.53
2022-10-20T05:01:50.472Z,101279.31
2022-10-20T05:02:31.393Z,101264.66
2022-10-20T05:03:57.370Z,101273.56
2022-10-20T05:04:37.461Z,101277.94
2022-10-20T05:05:17.365Z,101278.13
2022-10-20T05:05:57.414Z,101269.16
2022-10-20T05:06:39.352Z,101251.03
2022-10-20T05:07:19.406Z,101270.88
2022-10-20T05:08:00.402Z,101271.72
2022-10-20T05:08:40.620Z,101266.47
2022-10-20T05:09:22.354Z,101269.03
2022-10-20T05:10:02.531Z,101266.34
2022-10-20T05:10:42.344Z,101268.88
2022-10-20T05:11:23.460Z,101267.94
2022-10-20T05:12:04.566Z,101264.41
2022-10-20T05:12:45.420Z,101260.06
2022-10-20T05:13:25.360Z,101265.25
2022-10-20T05:14:05.431Z,101265.25
2022-10-20T05:14:45.369Z,101269.75
2022-10-20T05:15:25.453Z,101259.91
2022-10-20T05:16:05.539Z,101264.47
2022-10-20T05:16:52.752Z,101260.00
2022-10-20T05:17:35.346Z,101267.00
2022-10-20T05:18:15.425Z,101269.75
2022-10-20T05:18:58.548Z,101276.13
2022-10-20T05:19:38.443Z,101272.41
2022-10-20T05:20:18.408Z,101274.31
2022-10-20T05:21:08.456Z,101279.78
2022-10-20T05:21:49.318Z,101277.19
2022-10-20T05:22:29.464Z,101286.06
2022-10-20T05:23:09.407Z,101283.41
2022-10-20T05:23:50.413Z,101275.31
2022-10-20T05:24:31.457Z,101282.44
2022-10-20T05:25:35.133Z,101272.88
2022-10-20T05:26:25.317Z,101287.75
2022-10-20T05:27:05.436Z,101291.50
2022-10-20T05:27:45.315Z,101289.88
2022-10-20T05:28:25.489Z,101286.50
2022-10-20T05:29:05.354Z,101293.50
2022-10-20T05:29:45.469Z,101292.69
2022-10-20T05:30:19.414Z,101291.75
2022-10-20T05:31:15.348Z,101297.13
2022-10-20T05:31:51.440Z,101290.03
2022-10-20T05:32:38.559Z,101297.13
2022-10-20T05:33:12.400Z,101295.41
2022-10-20T05:34:02.308Z,101302.31
2022-10-20T05:34:36.373Z,101283.06
2022-10-20T05:35:16.373Z,101294.63
2022-10-20T05:35:56.423Z,101302.72
2022-10-20T05:36:37.390Z,101296.50
2022-10-20T05:37:17.445Z,101285.94
2022-10-20T05:37:57.318Z,101303.53
2022-10-20T05:38:37.493Z,101304.34
2022-10-20T05:39:20.716Z,101298.16
2022-10-20T05:40:06.557Z,101300.91
2022-10-20T05:40:46.347Z,101287.06
2022-10-20T05:41:31.199Z,101301.00
2022-10-20T05:42:13.313Z,101309.00
2022-10-20T05:42:53.419Z,101304.56
2022-10-20T05:43:33.312Z,101304.84
2022-10-20T05:44:15.426Z,101298.69
2022-10-20T05:44:55.313Z,101305.84
2022-10-20T05:45:35.375Z,101301.50
2022-10-20T05:46:16.334Z,101306.78
2022-10-20T05:46:56.433Z,101306.88
2022-10-20T05:47:36.347Z,101302.50
2022-10-20T05:48:16.365Z,101308.00
2022-10-20T05:49:02.369Z,101298.41
2022-10-20T05:49:56.340Z,101293.34
2022-10-20T05:50:50.303Z,101314.06
2022-10-20T05:51:41.325Z,101307.22
2022-10-20T05:52:15.378Z,101305.25
2022-10-20T05:53:02.288Z,101307.09
2022-10-20T05:53:36.368Z,101312.31
2022-10-20T05:54:23.285Z,101308.72
2022-10-20T05:54:57.446Z,101306.88
2022-10-20T05:55:44.300Z,101312.06
2022-10-20T05:56:23.438Z,101288.63
2022-10-20T05:57:03.348Z,101304.22
2022-10-20T05:57:43.410Z,101315.69
2022-10-20T05:58:28.305Z,101304.91
2022-10-20T05:59:08.402Z,101309.31
2022-10-20T05:59:49.325Z,101309.06
2022-10-20T06:00:31.535Z,101298.00
2022-10-20T06:01:24.483Z,101317.28
2022-10-20T06:03:13.937Z,101313.34
2022-10-20T06:04:00.392Z,101307.22
2022-10-20T06:04:41.314Z,101323.72
2022-10-20T06:05:21.382Z,101314.88
2022-10-20T06:06:06.278Z,101319.19
2022-10-20T06:06:48.730Z,101319.97
2022-10-20T06:07:28.334Z,101320.66
2022-10-20T06:08:08.417Z,101323.31
2022-10-20T06:08:48.299Z,101320.72
2022-10-20T06:09:29.361Z,101326.16
2022-10-20T06:10:18.322Z,101328.69
2022-10-20T06:10:58.368Z,101319.97
2022-10-20T06:11:39.429Z,101292.28
2022-10-20T06:12:20.461Z,101328.69
2022-10-20T06:13:00.372Z,101333.09
2022-10-20T06:13:40.379Z,101328.69
2022-10-20T06:14:21.292Z,101325.06
2022-10-20T06:15:01.378Z,101329.47
2022-10-20T06:15:44.362Z,101326.78
2022-10-20T06:16:30.569Z,101325.84
2022-10-20T06:17:10.264Z,101328.44
2022-10-20T06:17:52.373Z,101305.66
2022-10-20T06:18:42.315Z,101326.56
2022-10-20T06:19:23.342Z,101328.19
2022-10-20T06:20:03.279Z,101305.66
2022-10-20T06:20:43.352Z,101329.03
2022-10-20T06:21:29.390Z,101327.13
2022-10-20T06:22:09.370Z,101326.16
2022-10-20T06:22:50.320Z,101312.28
2022-10-20T06:23:30.365Z,101321.63
2022-10-20T06:24:12.305Z,101328.72
2022-10-20T06:24:52.323Z,101326.91
2022-10-20T06:25:32.267Z,101326.16
2022-10-20T06:26:19.394Z,101327.03
2022-10-20T06:26:59.301Z,101332.38
2022-10-20T06:27:39.339Z,101334.13
2022-10-20T06:28:19.325Z,101322.63
2022-10-20T06:29:05.021Z,101327.78
2022-10-20T06:29:45.370Z,101315.47
2022-10-20T06:30:25.339Z,101312.88
2022-10-20T06:31:06.264Z,101318.94
2022-10-20T06:31:50.380Z,101331.41
2022-10-20T06:32:30.310Z,101316.34
2022-10-20T06:33:12.317Z,101328.72
2022-10-20T06:33:54.267Z,101317.19
2022-10-20T06:34:34.377Z,101317.19
2022-10-20T06:35:15.324Z,101299.81
2022-10-20T06:35:55.371Z,101317.19
2022-10-20T06:36:36.264Z,101330.19
2022-10-20T06:37:30.323Z,101318.81
2022-10-20T06:38:24.244Z,101330.03
2022-10-20T06:39:21.290Z,101328.47
2022-10-20T06:40:15.292Z,101315.06
2022-10-20T06:41:09.283Z,101326.44
2022-10-20T06:42:09.490Z,101319.97
2022-10-20T06:43:06.262Z,101319.06
2022-10-20T06:44:06.329Z,101323.34
2022-10-20T06:45:01.254Z,101330.31
2022-10-20T06:45:41.269Z,101325.75
2022-10-20T06:46:25.323Z,101324.81
2022-10-20T06:47:05.256Z,101331.91
2022-10-20T06:47:45.311Z,101332.63
2022-10-20T06:48:25.313Z,101322.19
2022-10-20T06:49:13.356Z,101333.38
2022-10-20T06:49:55.269Z,101329.88
2022-10-20T06:50:35.321Z,101331.63
2022-10-20T06:51:20.269Z,101335.09
2022-10-20T06:52:00.393Z,101322.50
2022-10-20T06:52:41.224Z,101330.25
2022-10-20T06:53:21.332Z,101327.56
2022-10-20T06:54:02.260Z,101334.53
2022-10-20T06:54:42.297Z,101333.47
2022-10-20T06:55:23.254Z,101330.78
2022-10-20T06:56:08.328Z,101308.91
2022-10-20T06:56:48.278Z,101325.28
2022-10-20T06:57:28.301Z,101316.59
2022-10-20T06:58:08.225Z,101325.06
2022-10-20T06:58:50.304Z,101332.13
2022-10-20T06:59:30.244Z,101325.94
2022-10-20T07:00:12.337Z,101323.25
2022-10-20T07:00:52.274Z,101321.41
2022-10-20T07:01:40.433Z,101336.25
2022-10-20T07:02:22.279Z,101314.28
2022-10-20T07:03:02.272Z,101320.38
2022-10-20T07:03:43.273Z,101330.88
2022-10-20T07:04:23.333Z,101332.81
2022-10-20T07:05:03.260Z,101330.22
2022-10-20T07:05:43.281Z,101335.59
2022-10-20T07:06:36.224Z,101328.78
2022-10-20T07:07:16.293Z,101333.97
2022-10-20T07:08:00.251Z,101335.72
2022-10-20T07:08:42.390Z,101335.72
2022-10-20T07:09:25.244Z,101321.69
2022-10-20T07:10:05.381Z,101335.72
2022-10-20T07:10:45.232Z,101337.47
2022-10-20T07:11:27.331Z,101331.47
2022-10-20T07:12:09.249Z,101329.78
2022-10-20T07:12:49.301Z,101337.59
2022-10-20T07:13:29.265Z,101337.47
2022-10-20T07:14:10.309Z,101342.84
2022-10-20T07:14:50.266Z,101341.16
2022-10-20T07:15:30.268Z,101346.22
2022-10-20T07:16:12.217Z,101343.50
2022-10-20T07:16:52.320Z,101348.78
2022-10-20T07:17:33.223Z,101340.66
2022-10-20T07:18:13.277Z,101327.63
2022-10-20T07:18:54.253Z,101330.09
2022-10-20T07:19:34.296Z,101340.38
2022-10-20T07:20:15.228Z,101337.38
2022-10-20T07:20:55.301Z,101347.81
2022-10-20T07:21:45.279Z,101345.97
2022-10-20T07:22:28.295Z,101337.09
2022-10-20T07:23:08.251Z,101347.41
2022-10-20T07:23:49.308Z,101344.56
2022-10-20T07:24:30.240Z,101335.63
2022-10-20T07:25:10.267Z,101341.22
2022-10-20T07:25:50.250Z,101342.53
2022-10-20T07:26:40.938Z,101340.72
2022-10-20T07:27:23.226Z,101343.38
2022-10-20T07:28:03.265Z,101337.03
2022-10-20T07:28:53.346Z,101340.66
2022-10-20T07:29:43.246Z,101352.94
2022-10-20T07:30:37.222Z,101347.88
2022-10-20T07:31:41.230Z,101328.34
2022-10-20T07:32:35.482Z,101350.78
2022-10-20T07:33:29.213Z,101350.63
2022-10-20T07:34:27.992Z,101352.22
2022-10-20T07:35:08.306Z,101357.44
2022-10-20T07:36:03.185Z,101352.22
2022-10-20T07:37:00.330Z,101335.13
2022-10-20T07:37:54.196Z,101345.25
2022-10-20T07:38:48.239Z,101350.47
2022-10-20T07:39:45.184Z,101345.13
2022-10-20T07:40:32.321Z,101317.66
2022-10-20T07:41:12.587Z,101337.41
2022-10-20T07:41:59.228Z,101337.13
2022-10-20T07:42:35.089Z,101345.94
2022-10-20T07:43:23.195Z,101346.66
2022-10-20T07:43:58.950Z,101342.94
2022-10-20T07:44:46.167Z,101339.50
2022-10-20T07:45:20.278Z,101343.81
2022-10-20T07:46:00.244Z,101331.28
2022-10-20T07:46:40.287Z,101334.91
2022-10-20T07:47:21.176Z,101338.22
2022-10-20T07:48:02.017Z,101345.31
2022-10-20T07:48:43.184Z,101341.84
2022-10-20T07:50:24.222Z,101343.03
2022-10-20T07:51:50.263Z,101333.81
2022-10-20T07:52:47.248Z,101345.00
2022-10-20T07:53:47.885Z,101337.78
2022-10-20T07:54:43.170Z,101325.31
2022-10-20T07:55:41.198Z,101336.66
2022-10-20T07:56:42.169Z,101337.28
2022-10-20T07:57:25.254Z,101331.06
2022-10-20T07:58:05.233Z,101318.44
2022-10-20T07:58:47.168Z,101329.00
2022-10-20T07:59:27.385Z,101328.78
2022-10-20T08:00:07.182Z,101323.19
2022-10-20T08:00:47.261Z,101323.00
2022-10-20T08:01:27.270Z,101322.13
2022-10-20T08:02:07.339Z,101317.72
2022-10-20T08:02:52.243Z,101313.31
2022-10-20T08:03:32.261Z,101318.19
2022-10-20T08:04:12.161Z,101312.50
2022-10-20T08:05:04.973Z,101299.16
2022-10-20T08:05:48.377Z,101305.22
2022-10-20T08:06:28.234Z,101310.19
2022-10-20T08:07:24.588Z,101308.38
2022-10-20T08:08:12.280Z,101294.88
2022-10-20T08:09:07.522Z,101308.38
2022-10-20T08:10:01.157Z,101302.03
2022-10-20T08:10:55.138Z,101309.53
2022-10-20T08:11:52.799Z,101292.53
2022-10-20T08:12:53.147Z,101308.16
2022-10-20T08:13:35.188Z,101310.50
2022-10-20T08:14:15.249Z,101299.00
2022-10-20T08:14:55.150Z,101298.81
2022-10-20T08:16:30.208Z,101308.72
2022-10-20T08:17:24.148Z,101304.31
2022-10-20T08:18:26.861Z,101291.22
2022-10-20T08:19:18.924Z,101301.44
2022-10-20T08:20:14.772Z,101315.31
2022-10-20T08:20:55.148Z,101272.41
2022-10-20T08:21:36.421Z,101311.69
2022-10-20T08:22:16.159Z,101309.59
2022-10-20T08:22:56.215Z,101314.63
2022-10-20T08:23:36.141Z,101304.75
2022-10-20T08:24:23.221Z,101310.78
2022-10-20T08:25:18.143Z,101308.72
2022-10-20T08:26:12.185Z,101299.69
2022-10-20T08:27:06.153Z,101306.47
2022-10-20T08:28:00.223Z,101295.09
2022-10-20T08:28:54.225Z,101304.38
2022-10-20T08:29:41.196Z,101305.94
2022-10-20T08:30:23.809Z,101308.34
2022-10-20T08:31:13.152Z,101303.84
2022-10-20T08:31:47.252Z,101274.19
2022-10-20T08:32:34.412Z,101305.03